Time;durP1;ratioP1;P1;durP2;ratioP2;P2;SDS_P1;SDS_P2;PMS_P1;PMS_P2;Temp;Humidity;BMP_temperature;BMP_pressure;BME280_temperature;BME280_humidity;BME280_pressure;Samples;Min_cycle;Max_cycle;Signal;HPM_P1;HPM_P2
2023/07/10 00:01:09;;;;;;;;;2.00;2.00;;;;;;;;4811105;29;28574;-92
2023/07/10 00:03:34;;;;;;;;;0.67;0.67;;;;;;;;4811332;29;28538;-93
2023/07/10 00:06:00;;;;;;;;;0.67;0.67;;;;;;;;4825199;29;28422;-92
2023/07/10 00:08:25;;;;;;;;;0.67;0.67;;;;;;;;4811017;29;28410;-92
2023/07/10 00:10:51;;;;;;;;;1.33;1.33;;;;;;;;4794142;29;28564;-92
2023/07/10 00:13:21;;;;;;;;;3.67;3.67;;;;;;;;4794758;29;28486;-92
2023/07/10 00:15:47;;;;;;;;;4.00;4.00;;;;;;;;4794724;29;28343;-92
2023/07/10 00:18:15;;;;;;;;;3.33;3.33;;;;;;;;4794475;29;29693;-92
2023/07/10 00:20:41;;;;;;;;;2.00;2.00;;;;;;;;4810921;29;28377;-92
2023/07/10 00:23:06;;;;;;;;;4.33;4.33;;;;;;;;4810941;29;28535;-92
2023/07/10 00:25:31;;;;;;;;;2.00;2.00;;;;;;;;4794200;29;28442;-92
2023/07/10 00:27:57;;;;;;;;;6.33;5.33;;;;;;;;4810837;29;29460;-92
2023/07/10 00:30:23;;;;;;;;;3.00;3.00;;;;;;;;4794302;29;28500;-92
2023/07/10 00:32:53;;;;;;;;;2.67;2.67;;;;;;;;4811019;29;28258;-91
2023/07/10 00:35:24;;;;;;;;;1.67;1.67;;;;;;;;4810761;29;28525;-92
2023/07/10 00:38:00;;;;;;;;;2.00;2.00;;;;;;;;4794238;29;28582;-92
2023/07/10 00:40:26;;;;;;;;;2.00;2.00;;;;;;;;4793902;29;28916;-92
2023/07/10 00:42:55;;;;;;;;;2.00;2.00;;;;;;;;4810571;29;28258;-92
2023/07/10 00:45:21;;;;;;;;;3.33;3.33;;;;;;;;4794384;29;28538;-92
2023/07/10 00:47:53;;;;;;;;;3.33;3.33;;;;;;;;4810580;29;28581;-92
2023/07/10 00:50:21;;;;;;;;;5.33;3.67;;;;;;;;4793799;29;28474;-92
2023/07/10 00:52:48;;;;;;;;;4.00;4.00;;;;;;;;4810164;29;28400;-91
2023/07/10 00:55:34;;;;;;;;;2.67;2.67;;;;;;;;4810262;29;28529;-93
2023/07/10 00:58:20;;;;;;;;;3.67;3.67;;;;;;;;4793827;29;29663;-92
2023/07/10 01:01:01;;;;;;;;;5.00;5.00;;;;;;;;4809718;29;28309;-92
2023/07/10 01:03:26;;;;;;;;;4.67;4.67;;;;;;;;4794090;29;28444;-92
2023/07/10 01:05:52;;;;;;;;;3.00;3.00;;;;;;;;4810268;29;28662;-92
2023/07/10 01:08:17;;;;;;;;;6.00;6.00;;;;;;;;4810253;29;29421;-92
2023/07/10 01:10:42;;;;;;;;;6.00;6.00;;;;;;;;4809490;29;28320;-91
2023/07/10 01:13:08;;;;;;;;;5.00;5.00;;;;;;;;4810434;29;28293;-91
2023/07/10 01:15:33;;;;;;;;;5.00;5.00;;;;;;;;4810185;29;28262;-92
2023/07/10 01:17:59;;;;;;;;;5.00;5.00;;;;;;;;4810105;29;28450;-91
2023/07/10 01:20:32;;;;;;;;;6.00;6.00;;;;;;;;4809859;29;28238;-92
2023/07/10 01:22:58;;;;;;;;;4.67;4.67;;;;;;;;4793761;29;28542;-92
2023/07/10 01:25:23;;;;;;;;;3.67;3.67;;;;;;;;4793074;29;28650;-92
2023/07/10 01:27:48;;;;;;;;;5.67;5.67;;;;;;;;4810193;29;29303;-92
2023/07/10 01:30:43;;;;;;;;;6.67;5.00;;;;;;;;4809838;29;28545;-92
2023/07/10 01:33:29;;;;;;;;;3.00;3.00;;;;;;;;4801755;29;28258;-92
2023/07/10 01:35:57;;;;;;;;;2.67;2.67;;;;;;;;4809584;29;28255;-92
2023/07/10 01:38:41;;;;;;;;;2.00;2.00;;;;;;;;4809646;29;29632;-92
2023/07/10 01:41:14;;;;;;;;;3.00;3.00;;;;;;;;4793203;29;28871;-92
2023/07/10 01:43:40;;;;;;;;;5.33;5.33;;;;;;;;4798515;29;28392;-92
2023/07/10 01:46:15;;;;;;;;;3.00;3.00;;;;;;;;4793330;29;28513;-92
2023/07/10 01:48:41;;;;;;;;;2.00;2.00;;;;;;;;4809632;29;28397;-92
2023/07/10 01:51:08;;;;;;;;;3.00;3.00;;;;;;;;4793088;29;28557;-91
2023/07/10 01:53:36;;;;;;;;;4.33;3.33;;;;;;;;4793413;29;28541;-92
2023/07/10 01:56:02;;;;;;;;;2.67;2.67;;;;;;;;4809226;29;28615;-92
2023/07/10 01:58:27;;;;;;;;;4.67;4.67;;;;;;;;4793060;29;28686;-92
2023/07/10 02:00:52;;;;;;;;;1.00;1.00;;;;;;;;4809448;29;28438;-91
2023/07/10 02:03:18;;;;;;;;;3.00;3.00;;;;;;;;4793276;29;28319;-92
2023/07/10 02:05:43;;;;;;;;;2.00;2.00;;;;;;;;4792450;29;28392;-91
2023/07/10 02:08:08;;;;;;;;;4.00;4.00;;;;;;;;4809596;29;28596;-92
2023/07/10 02:10:33;;;;;;;;;5.33;5.33;;;;;;;;4808801;29;28423;-92
2023/07/10 02:12:59;;;;;;;;;4.33;4.33;;;;;;;;4793018;29;28365;-92
2023/07/10 02:15:25;;;;;;;;;2.67;2.67;;;;;;;;4809394;29;28349;-92
2023/07/10 02:17:50;;;;;;;;;3.67;3.67;;;;;;;;4809367;29;29626;-92
2023/07/10 02:20:16;;;;;;;;;3.33;3.33;;;;;;;;4809081;29;28262;-92
2023/07/10 02:22:41;;;;;;;;;3.00;3.00;;;;;;;;4809597;29;28306;-92
2023/07/10 02:25:06;;;;;;;;;2.67;2.67;;;;;;;;4792377;29;28271;-92
2023/07/10 02:27:32;;;;;;;;;3.67;3.67;;;;;;;;4809136;29;28350;-91
2023/07/10 02:29:57;;;;;;;;;3.00;3.00;;;;;;;;4808971;29;28359;-91
2023/07/10 02:32:22;;;;;;;;;3.00;3.00;;;;;;;;4809434;29;28360;-92
2023/07/10 02:34:47;;;;;;;;;5.00;5.00;;;;;;;;4809201;29;28526;-92
2023/07/10 02:37:13;;;;;;;;;3.67;3.67;;;;;;;;4792655;29;29784;-91
2023/07/10 02:39:38;;;;;;;;;4.00;4.00;;;;;;;;4808480;29;28575;-92
2023/07/10 02:42:03;;;;;;;;;3.00;3.00;;;;;;;;4809223;29;28450;-91
2023/07/10 02:44:30;;;;;;;;;4.00;4.00;;;;;;;;4808982;29;28348;-91
2023/07/10 02:46:55;;;;;;;;;2.67;2.67;;;;;;;;4792512;29;30702;-92
2023/07/10 02:49:20;;;;;;;;;3.00;3.00;;;;;;;;4792140;29;28413;-92
2023/07/10 02:51:45;;;;;;;;;5.00;5.00;;;;;;;;4792825;29;28388;-92
2023/07/10 02:54:12;;;;;;;;;3.00;3.00;;;;;;;;4808590;29;28500;-92
2023/07/10 02:56:37;;;;;;;;;2.00;2.00;;;;;;;;4808670;29;28445;-92
2023/07/10 02:59:02;;;;;;;;;3.67;3.67;;;;;;;;4792176;29;28447;-92
2023/07/10 03:01:27;;;;;;;;;3.33;3.33;;;;;;;;4808890;29;28408;-91
2023/07/10 03:03:53;;;;;;;;;3.33;3.33;;;;;;;;4792415;29;28400;-92
2023/07/10 03:06:19;;;;;;;;;3.00;3.00;;;;;;;;4792254;29;29601;-91
2023/07/10 03:08:44;;;;;;;;;2.00;2.00;;;;;;;;4792102;29;29044;-92
2023/07/10 03:11:11;;;;;;;;;1.33;1.33;;;;;;;;4808193;29;28296;-92
2023/07/10 03:13:37;;;;;;;;;2.00;2.00;;;;;;;;4792450;29;28502;-92
2023/07/10 03:16:06;;;;;;;;;2.00;2.00;;;;;;;;4808322;29;28348;-92
2023/07/10 03:18:32;;;;;;;;;1.67;1.67;;;;;;;;4791954;29;28626;-92
2023/07/10 03:20:57;;;;;;;;;2.00;2.00;;;;;;;;4808678;29;28462;-92
2023/07/10 03:23:22;;;;;;;;;3.00;3.00;;;;;;;;4792186;29;28644;-92
2023/07/10 03:25:47;;;;;;;;;3.67;3.67;;;;;;;;4808010;29;30517;-92
2023/07/10 03:28:13;;;;;;;;;2.33;2.33;;;;;;;;4808523;29;28341;-92
2023/07/10 03:30:40;;;;;;;;;2.67;2.67;;;;;;;;4808335;29;28355;-91
2023/07/10 03:33:06;;;;;;;;;3.67;3.67;;;;;;;;4808540;29;28600;-92
2023/07/10 03:35:31;;;;;;;;;6.33;6.33;;;;;;;;4808221;29;28323;-92
2023/07/10 03:37:56;;;;;;;;;3.00;3.00;;;;;;;;4808341;29;28272;-92
2023/07/10 03:40:22;;;;;;;;;3.67;3.67;;;;;;;;4791465;29;28325;-92
2023/07/10 03:42:47;;;;;;;;;2.67;2.67;;;;;;;;4791832;29;28278;-92
2023/07/10 03:45:12;;;;;;;;;3.00;3.00;;;;;;;;4808395;29;29420;-91
2023/07/10 03:47:37;;;;;;;;;2.33;2.33;;;;;;;;4791840;29;28532;-91
2023/07/10 03:50:03;;;;;;;;;1.00;1.00;;;;;;;;4808007;29;28320;-92
2023/07/10 03:52:28;;;;;;;;;2.00;2.00;;;;;;;;4791956;29;28516;-92
2023/07/10 03:54:53;;;;;;;;;1.67;1.67;;;;;;;;4807698;29;29180;-92
2023/07/10 03:57:19;;;;;;;;;3.00;2.67;;;;;;;;4791490;29;28660;-91
2023/07/10 03:59:44;;;;;;;;;2.00;2.00;;;;;;;;4791730;29;28465;-91
2023/07/10 04:02:09;;;;;;;;;2.33;2.33;;;;;;;;4808244;29;28440;-92
2023/07/10 04:04:34;;;;;;;;;3.00;3.00;;;;;;;;4791876;29;29705;-91
2023/07/10 04:06:59;;;;;;;;;2.33;2.33;;;;;;;;4791568;29;28434;-91
2023/07/10 04:09:25;;;;;;;;;2.00;2.00;;;;;;;;4807509;29;28410;-92
2023/07/10 04:11:50;;;;;;;;;2.33;2.33;;;;;;;;4791718;29;28531;-91
2023/07/10 04:14:15;;;;;;;;;3.67;3.67;;;;;;;;4807736;29;28427;-91
2023/07/10 04:16:40;;;;;;;;;2.33;2.33;;;;;;;;4791658;29;28677;-92
2023/07/10 04:19:07;;;;;;;;;2.00;2.00;;;;;;;;4791341;29;28479;-92
2023/07/10 04:21:32;;;;;;;;;5.00;3.00;;;;;;;;4808042;29;28541;-92
2023/07/10 04:23:58;;;;;;;;;3.00;3.00;;;;;;;;4790717;29;28806;-92
2023/07/10 04:26:25;;;;;;;;;3.00;3.00;;;;;;;;4807897;29;28388;-92
2023/07/10 04:28:51;;;;;;;;;2.33;2.33;;;;;;;;4809005;29;28278;-91
2023/07/10 04:31:18;;;;;;;;;3.33;3.33;;;;;;;;4794523;29;28258;-92
2023/07/10 04:33:43;;;;;;;;;4.00;4.00;;;;;;;;4810554;29;29249;-92
2023/07/10 04:36:09;;;;;;;;;2.00;2.00;;;;;;;;4810841;29;28518;-92
2023/07/10 04:38:34;;;;;;;;;3.33;3.33;;;;;;;;4794262;29;28345;-92
2023/07/10 04:41:01;;;;;;;;;2.00;2.00;;;;;;;;4810477;29;28505;-91
2023/07/10 04:43:28;;;;;;;;;2.00;2.00;;;;;;;;4794045;29;29954;-91
2023/07/10 04:45:56;;;;;;;;;2.00;2.00;;;;;;;;4810596;29;28345;-92
2023/07/10 04:48:23;;;;;;;;;1.00;1.00;;;;;;;;4793849;29;28266;-91
2023/07/10 04:50:48;;;;;;;;;2.00;2.00;;;;;;;;4794209;29;28380;-91
2023/07/10 04:53:14;;;;;;;;;3.00;3.00;;;;;;;;4793914;29;28771;-92
2023/07/10 04:55:39;;;;;;;;;3.00;3.00;;;;;;;;4760972;29;1287055;-92
2023/07/10 04:58:05;;;;;;;;;2.00;2.00;;;;;;;;4008923;29;15202126;-92
2023/07/10 05:00:31;;;;;;;;;2.00;2.00;;;;;;;;4810372;29;28372;-92
2023/07/10 05:02:56;;;;;;;;;3.33;3.33;;;;;;;;4810410;29;28337;-92
2023/07/10 05:05:21;;;;;;;;;4.00;4.00;;;;;;;;4810516;29;28478;-92
2023/07/10 05:07:47;;;;;;;;;2.33;2.33;;;;;;;;4810176;29;28426;-92
2023/07/10 05:10:12;;;;;;;;;2.00;2.00;;;;;;;;4793370;29;29582;-92
2023/07/10 05:12:37;;;;;;;;;2.33;2.33;;;;;;;;4793909;29;28434;-91
2023/07/10 05:15:03;;;;;;;;;3.00;3.00;;;;;;;;4810517;29;28460;-92
2023/07/10 05:17:28;;;;;;;;;4.00;4.00;;;;;;;;4793578;29;28504;-91
2023/07/10 05:19:56;;;;;;;;;2.00;2.00;;;;;;;;4793734;29;28407;-92
2023/07/10 05:22:21;;;;;;;;;3.00;3.00;;;;;;;;4810113;29;28254;-92
2023/07/10 05:24:47;;;;;;;;;4.33;4.33;;;;;;;;4793308;29;28470;-91
2023/07/10 05:27:12;;;;;;;;;7.67;6.00;;;;;;;;4809882;29;29495;-93
2023/07/10 05:29:37;;;;;;;;;3.00;3.00;;;;;;;;4810091;29;28339;-92
2023/07/10 05:32:05;;;;;;;;;3.67;3.67;;;;;;;;4809988;29;28401;-92
2023/07/10 05:34:30;;;;;;;;;3.00;3.00;;;;;;;;4793702;29;28442;-92
2023/07/10 05:36:55;;;;;;;;;2.00;2.00;;;;;;;;4793398;29;29793;-92
2023/07/10 05:39:22;;;;;;;;;1.33;1.33;;;;;;;;4792720;29;29375;-92
2023/07/10 05:41:48;;;;;;;;;2.00;2.00;;;;;;;;4809239;29;28383;-92
2023/07/10 05:44:13;;;;;;;;;3.00;3.00;;;;;;;;4810017;29;28527;-92
2023/07/10 05:46:38;;;;;;;;;2.00;2.00;;;;;;;;4793264;29;29846;-92
2023/07/10 05:49:03;;;;;;;;;1.00;1.00;;;;;;;;4809793;29;28251;-92
2023/07/10 05:51:29;;;;;;;;;2.00;2.00;;;;;;;;2992039;29;34314867;-92
2023/07/10 05:53:56;;;;;;;;;2.33;2.33;;;;;;;;4808990;29;29028;-92
2023/07/10 05:56:23;;;;;;;;;1.75;1.75;;;;;;;;4793144;29;28646;-92
2023/07/10 05:58:48;;;;;;;;;2.00;2.00;;;;;;;;4793319;29;28272;-92
2023/07/10 06:01:13;;;;;;;;;3.33;2.67;;;;;;;;4792937;29;30016;-92
2023/07/10 06:03:38;;;;;;;;;2.67;2.67;;;;;;;;4809772;29;28472;-92
2023/07/10 06:06:05;;;;;;;;;1.67;1.67;;;;;;;;4809472;29;28447;-92
2023/07/10 06:08:31;;;;;;;;;2.00;2.00;;;;;;;;4793117;29;28341;-91
2023/07/10 06:10:57;;;;;;;;;1.00;0.67;;;;;;;;4808739;29;28504;-92
2023/07/10 06:13:22;;;;;;;;;3.00;3.00;;;;;;;;4809370;29;28379;-92
2023/07/10 06:15:48;;;;;;;;;7.67;7.67;;;;;;;;4792888;29;28480;-92
2023/07/10 06:18:14;;;;;;;;;3.33;3.33;;;;;;;;4809347;29;28369;-92
2023/07/10 06:20:40;;;;;;;;;3.00;2.00;;;;;;;;4809066;29;28572;-92
2023/07/10 06:23:05;;;;;;;;;3.00;3.00;;;;;;;;4809173;29;28313;-92
2023/07/10 06:25:30;;;;;;;;;5.00;5.00;;;;;;;;4808770;29;28599;-92
2023/07/10 06:27:56;;;;;;;;;3.00;3.00;;;;;;;;4793019;29;28428;-92
2023/07/10 06:30:21;;;;;;;;;3.00;3.00;;;;;;;;4792527;29;30675;-92
2023/07/10 06:32:46;;;;;;;;;1.00;1.00;;;;;;;;4792726;29;29477;-92
2023/07/10 06:35:13;;;;;;;;;1.00;1.00;;;;;;;;4809082;29;28581;-92
2023/07/10 06:37:41;;;;;;;;;0.00;0.00;;;;;;;;4809479;29;28295;-92
2023/07/10 06:40:09;;;;;;;;;1.00;1.00;;;;;;;;4808445;29;29311;-92
2023/07/10 06:42:34;;;;;;;;;1.00;1.00;;;;;;;;4792547;29;28361;-92
2023/07/10 06:45:00;;;;;;;;;1.00;1.00;;;;;;;;4808895;29;28238;-92
2023/07/10 06:47:25;;;;;;;;;1.00;1.00;;;;;;;;4809158;29;28271;-92
2023/07/10 06:49:50;;;;;;;;;0.00;0.00;;;;;;;;4792103;29;29961;-91
2023/07/10 06:52:15;;;;;;;;;1.00;1.00;;;;;;;;4792287;29;28622;-92
2023/07/10 06:54:41;;;;;;;;;2.33;2.33;;;;;;;;4808386;29;28469;-92
2023/07/10 06:57:06;;;;;;;;;1.00;1.00;;;;;;;;4792399;29;28455;-93
2023/07/10 06:59:33;;;;;;;;;0.67;0.67;;;;;;;;4792213;29;30574;-92
2023/07/10 07:01:59;;;;;;;;;1.00;1.00;;;;;;;;4792445;29;29758;-92
2023/07/10 07:04:24;;;;;;;;;1.00;1.00;;;;;;;;4808623;29;28521;-92
2023/07/10 07:06:50;;;;;;;;;1.00;1.00;;;;;;;;4792567;29;28471;-92
2023/07/10 07:09:15;;;;;;;;;1.00;1.00;;;;;;;;4807975;29;29423;-92
2023/07/10 07:11:40;;;;;;;;;0.33;0.33;;;;;;;;4792280;29;28606;-92
2023/07/10 07:14:06;;;;;;;;;0.33;0.33;;;;;;;;4808559;29;28320;-92
2023/07/10 07:16:31;;;;;;;;;1.00;1.00;;;;;;;;4808829;29;28507;-92
2023/07/10 07:18:56;;;;;;;;;3.00;1.00;;;;;;;;4808201;29;28545;-92
2023/07/10 07:21:21;;;;;;;;;1.00;1.00;;;;;;;;4792145;29;28687;-92
2023/07/10 07:24:02;;;;;;;;;1.00;1.00;;;;;;;;4807954;29;28413;-92
2023/07/10 07:26:27;;;;;;;;;0.00;0.00;;;;;;;;4808654;29;29215;-92
2023/07/10 07:28:52;;;;;;;;;0.33;0.33;;;;;;;;4791819;29;28605;-92
2023/07/10 07:31:18;;;;;;;;;1.00;1.00;;;;;;;;4808381;29;28440;-92
2023/07/10 07:33:43;;;;;;;;;1.00;1.00;;;;;;;;4808318;29;28284;-92
2023/07/10 07:36:08;;;;;;;;;1.00;1.00;;;;;;;;4808548;29;28324;-92
2023/07/10 07:38:33;;;;;;;;;1.00;1.00;;;;;;;;4808064;29;28333;-93
2023/07/10 07:40:59;;;;;;;;;1.67;1.67;;;;;;;;4807930;29;28662;-92
2023/07/10 07:43:25;;;;;;;;;2.00;2.00;;;;;;;;4808372;29;28420;-92
2023/07/10 07:45:53;;;;;;;;;1.33;1.33;;;;;;;;4808353;29;28626;-92
2023/07/10 07:48:19;;;;;;;;;1.00;1.00;;;;;;;;4791556;29;30602;-92
2023/07/10 07:50:53;;;;;;;;;0.00;0.00;;;;;;;;4791670;29;28993;-92
2023/07/10 07:53:18;;;;;;;;;0.33;0.33;;;;;;;;4791817;29;28532;-92
2023/07/10 07:55:44;;;;;;;;;1.00;1.00;;;;;;;;4807743;29;28620;-92
2023/07/10 07:58:09;;;;;;;;;1.00;1.00;;;;;;;;4808061;29;28747;-92
2023/07/10 08:00:34;;;;;;;;;0.67;0.67;;;;;;;;4791605;29;29401;-92
2023/07/10 08:03:00;;;;;;;;;0.00;0.00;;;;;;;;4792062;29;28266;-92
2023/07/10 08:05:25;;;;;;;;;1.00;1.00;;;;;;;;4811304;29;28299;-93
2023/07/10 08:07:53;;;;;;;;;1.00;1.00;;;;;;;;4794820;29;30529;-92
2023/07/10 08:10:19;;;;;;;;;0.33;0.33;;;;;;;;4810712;29;28277;-92
2023/07/10 08:12:47;;;;;;;;;0.33;0.33;;;;;;;;4794915;29;28412;-92
2023/07/10 08:15:12;;;;;;;;;1.00;1.00;;;;;;;;4811133;29;28513;-92
2023/07/10 08:17:37;;;;;;;;;1.33;1.33;;;;;;;;4794536;29;29584;-92
2023/07/10 08:20:03;;;;;;;;;0.67;0.67;;;;;;;;4810894;29;28388;-92
2023/07/10 08:22:28;;;;;;;;;0.67;0.67;;;;;;;;4811263;29;28486;-92
2023/07/10 08:24:53;;;;;;;;;1.00;1.00;;;;;;;;4810596;29;28407;-92
2023/07/10 08:27:19;;;;;;;;;0.00;0.00;;;;;;;;4811130;29;28321;-92
2023/07/10 08:29:45;;;;;;;;;0.33;0.33;;;;;;;;4810997;29;28411;-92
2023/07/10 08:32:10;;;;;;;;;1.00;1.00;;;;;;;;4811015;29;28308;-92
2023/07/10 08:34:35;;;;;;;;;0.67;0.67;;;;;;;;4794650;29;28495;-92
2023/07/10 08:37:01;;;;;;;;;1.00;1.00;;;;;;;;4794326;29;30489;-92
2023/07/10 08:39:26;;;;;;;;;0.33;0.33;;;;;;;;4810512;29;28484;-92
2023/07/10 08:41:55;;;;;;;;;2.00;2.00;;;;;;;;4794296;29;28266;-92
2023/07/10 08:44:25;;;;;;;;;0.67;0.67;;;;;;;;4794347;29;28462;-92
2023/07/10 08:46:51;;;;;;;;;0.00;0.00;;;;;;;;4810568;29;28634;-92
2023/07/10 08:49:16;;;;;;;;;0.00;0.00;;;;;;;;4810396;29;28322;-92
2023/07/10 08:51:46;;;;;;;;;1.00;1.00;;;;;;;;4794206;29;28341;-92
2023/07/10 08:54:18;;;;;;;;;1.00;1.00;;;;;;;;4793849;29;28433;-92
2023/07/10 08:56:43;;;;;;;;;1.00;1.00;;;;;;;;4794085;29;29710;-93
2023/07/10 08:59:27;;;;;;;;;1.00;1.00;;;;;;;;4810443;29;28245;-92
2023/07/10 09:01:54;;;;;;;;;0.00;0.00;;;;;;;;4810697;29;28365;-92
2023/07/10 09:04:20;;;;;;;;;0.00;0.00;;;;;;;;4793984;29;28617;-92
2023/07/10 09:06:47;;;;;;;;;1.00;1.00;;;;;;;;4810295;29;29212;-93
2023/07/10 09:09:31;;;;;;;;;1.00;1.00;;;;;;;;4809753;29;28695;-93
2023/07/10 09:12:06;;;;;;;;;1.00;1.00;;;;;;;;4794001;29;28459;-92
2023/07/10 09:14:52;;;;;;;;;2.33;1.33;;;;;;;;4810287;29;28575;-93
2023/07/10 09:17:46;;;;;;;;;0.00;0.00;;;;;;;;4793638;29;29917;-93
2023/07/10 09:20:14;;;;;;;;;0.00;0.00;;;;;;;;4785754;29;29399;-93
2023/07/10 09:22:46;;;;;;;;;0.67;0.67;;;;;;;;4793830;29;28368;-92
2023/07/10 09:25:12;;;;;;;;;0.67;0.67;;;;;;;;4809701;29;28509;-92
2023/07/10 09:27:40;;;;;;;;;1.00;1.00;;;;;;;;4793665;29;30739;-92
2023/07/10 09:30:14;;;;;;;;;0.00;0.00;;;;;;;;4809831;29;28262;-93
2023/07/10 09:32:39;;;;;;;;;1.00;1.00;;;;;;;;4793642;29;28354;-92
2023/07/10 09:35:04;;;;;;;;;0.00;0.00;;;;;;;;4810099;29;28409;-92
2023/07/10 09:37:33;;;;;;;;;1.00;1.00;;;;;;;;4793537;29;31213;-92
2023/07/10 09:40:17;;;;;;;;;0.67;0.67;;;;;;;;4809546;29;28442;-92
2023/07/10 09:42:42;;;;;;;;;1.00;1.00;;;;;;;;4810025;29;28697;-92
2023/07/10 09:45:08;;;;;;;;;2.00;2.00;;;;;;;;4809897;29;28275;-92
2023/07/10 09:47:40;;;;;;;;;1.00;1.00;;;;;;;;4793615;29;29879;-92
2023/07/10 09:50:12;;;;;;;;;1.00;1.00;;;;;;;;4809469;29;28316;-92
2023/07/10 09:52:38;;;;;;;;;0.33;0.33;;;;;;;;4809684;29;28612;-93
2023/07/10 09:55:06;;;;;;;;;0.00;0.00;;;;;;;;4809587;29;28431;-92
2023/07/10 09:57:50;;;;;;;;;1.00;1.00;;;;;;;;4809494;29;29322;-92
2023/07/10 10:00:17;;;;;;;;;1.00;1.00;;;;;;;;4793133;29;29496;-92
2023/07/10 10:02:45;;;;;;;;;0.33;0.33;;;;;;;;4809427;29;28262;-92
2023/07/10 10:05:10;;;;;;;;;1.00;1.00;;;;;;;;4809737;29;28400;-92
2023/07/10 10:07:38;;;;;;;;;1.00;1.00;;;;;;;;4823214;29;28471;-92
2023/07/10 10:10:19;;;;;;;;;0.67;0.67;;;;;;;;4792665;29;28573;-92
2023/07/10 10:12:46;;;;;;;;;1.67;1.67;;;;;;;;4793030;29;28643;-93
2023/07/10 10:15:20;;;;;;;;;0.00;0.00;;;;;;;;4793212;29;28398;-93
2023/07/10 10:17:46;;;;;;;;;1.67;1.67;;;;;;;;4809240;29;28502;-93
2023/07/10 10:20:29;;;;;;;;;1.33;1.33;;;;;;;;4792653;29;28415;-93
2023/07/10 10:22:55;;;;;;;;;2.00;2.00;;;;;;;;4809575;29;28516;-92
2023/07/10 10:25:23;;;;;;;;;2.00;2.00;;;;;;;;4808790;29;28577;-92
2023/07/10 10:27:56;;;;;;;;;1.00;1.00;;;;;;;;4792434;29;30711;-92
2023/07/10 10:30:24;;;;;;;;;1.00;1.00;;;;;;;;4792624;29;28326;-93
2023/07/10 10:32:56;;;;;;;;;1.00;1.00;;;;;;;;4809213;29;28519;-92
2023/07/10 10:35:21;;;;;;;;;2.00;2.00;;;;;;;;4809077;29;28502;-92
2023/07/10 10:37:55;;;;;;;;;1.00;1.00;;;;;;;;4809098;29;29171;-93
2023/07/10 10:40:24;;;;;;;;;0.67;0.67;;;;;;;;4808672;29;28474;-92
2023/07/10 10:43:08;;;;;;;;;1.67;1.67;;;;;;;;4804832;29;28512;-93
2023/07/10 10:45:39;;;;;;;;;1.00;1.00;;;;;;;;4809188;29;28518;-93
2023/07/10 10:48:04;;;;;;;;;1.00;1.00;;;;;;;;4792331;29;30685;-93
2023/07/10 10:50:29;;;;;;;;;2.00;1.00;;;;;;;;4792457;29;28472;-92
2023/07/10 10:53:06;;;;;;;;;1.00;1.00;;;;;;;;4808939;29;28381;-92
2023/07/10 10:55:51;;;;;;;;;2.00;2.00;;;;;;;;4792263;29;28542;-93
2023/07/10 10:58:22;;;;;;;;;1.00;1.00;;;;;;;;4808629;29;28367;-93
2023/07/10 11:00:50;;;;;;;;;2.00;2.00;;;;;;;;4792271;29;28615;-92
2023/07/10 11:03:33;;;;;;;;;1.33;1.33;;;;;;;;4808764;29;28441;-93
2023/07/10 11:06:02;;;;;;;;;1.00;1.00;;;;;;;;4808704;29;28257;-92
2023/07/10 11:08:40;;;;;;;;;2.00;2.00;;;;;;;;4792007;29;28495;-93
2023/07/10 11:11:13;;;;;;;;;1.00;1.00;;;;;;;;4792022;29;28336;-93
2023/07/10 11:13:39;;;;;;;;;1.00;1.00;;;;;;;;4792210;29;28490;-93
2023/07/10 11:16:06;;;;;;;;;1.00;1.00;;;;;;;;4808733;29;28453;-92
2023/07/10 11:18:32;;;;;;;;;1.00;1.00;;;;;;;;4791847;29;29906;-93
2023/07/10 11:21:00;;;;;;;;;1.00;1.00;;;;;;;;4808493;29;28291;-93
2023/07/10 11:23:44;;;;;;;;;1.00;1.00;;;;;;;;4808367;29;28476;-92
2023/07/10 11:26:17;;;;;;;;;1.33;1.33;;;;;;;;4808551;29;28615;-93
2023/07/10 11:28:48;;;;;;;;;2.00;2.00;;;;;;;;4808175;29;28354;-93
2023/07/10 11:31:30;;;;;;;;;1.00;1.00;;;;;;;;4791981;29;28386;-93
2023/07/10 11:34:07;;;;;;;;;0.50;0.50;;;;;;;;4482157;29;6408354;-92
2023/07/10 11:36:32;;;;;;;;;0.25;0.25;;;;;;;;1706168;29;47403500;-92
2023/07/10 11:39:09;;;;;;;;;1.00;1.00;;;;;;;;4793281;29;28342;-93
2023/07/10 11:41:39;;;;;;;;;1.00;1.00;;;;;;;;4814885;29;28562;-93
2023/07/10 11:44:19;;;;;;;;;1.00;1.00;;;;;;;;4819814;29;28514;-92
2023/07/10 11:46:56;;;;;;;;;1.00;1.00;;;;;;;;4811563;29;28249;-92
2023/07/10 11:49:22;;;;;;;;;0.00;0.00;;;;;;;;4794962;29;28496;-93
2023/07/10 11:52:06;;;;;;;;;1.00;1.00;;;;;;;;4794900;29;30824;-92
2023/07/10 11:54:34;;;;;;;;;0.00;0.00;;;;;;;;4810776;29;28620;-92
2023/07/10 11:57:08;;;;;;;;;1.00;1.00;;;;;;;;4811384;29;28377;-93
2023/07/10 11:59:34;;;;;;;;;1.00;1.00;;;;;;;;4794865;29;28424;-93
2023/07/10 12:01:59;;;;;;;;;0.67;0.67;;;;;;;;4825208;29;29933;-92
2023/07/10 12:04:26;;;;;;;;;0.33;0.33;;;;;;;;4811281;29;28577;-93
2023/07/10 12:06:53;;;;;;;;;1.00;1.00;;;;;;;;4811351;29;28338;-93
2023/07/10 12:09:18;;;;;;;;;0.33;0.33;;;;;;;;4794367;29;28419;-93
2023/07/10 12:11:46;;;;;;;;;1.00;1.00;;;;;;;;4811021;29;28388;-93
2023/07/10 12:14:16;;;;;;;;;0.67;0.67;;;;;;;;4810937;29;28443;-93
2023/07/10 12:16:42;;;;;;;;;1.00;1.00;;;;;;;;4794576;29;28254;-93
2023/07/10 12:19:18;;;;;;;;;0.00;0.00;;;;;;;;4811029;29;28250;-93
2023/07/10 12:21:44;;;;;;;;;1.00;1.00;;;;;;;;4811017;29;28366;-93
2023/07/10 12:24:14;;;;;;;;;0.00;0.00;;;;;;;;4810524;29;28847;-93
2023/07/10 12:26:52;;;;;;;;;;;;;;;;;;;;;
2023/07/10 12:29:20;;;;;;;;;1.00;1.00;;;;;;;;4810168;29;51874;-92
2023/07/10 12:31:45;;;;;;;;;0.00;0.00;;;;;;;;4794152;29;30298;-92
2023/07/10 12:34:23;;;;;;;;;1.00;1.00;;;;;;;;4810924;29;28427;-93
2023/07/10 12:36:50;;;;;;;;;0.00;0.00;;;;;;;;4810791;29;28538;-93
2023/07/10 12:39:15;;;;;;;;;0.00;0.00;;;;;;;;4810586;29;28340;-93
2023/07/10 12:41:41;;;;;;;;;1.00;1.00;;;;;;;;4793945;29;28566;-93
2023/07/10 12:44:07;;;;;;;;;1.00;1.00;;;;;;;;4810922;29;28320;-92
2023/07/10 12:46:33;;;;;;;;;1.00;1.00;;;;;;;;4794132;29;28322;-92
2023/07/10 12:49:04;;;;;;;;;1.00;1.00;;;;;;;;4783126;29;28511;-92
2023/07/10 12:51:32;;;;;;;;;0.33;0.33;;;;;;;;4774166;29;28521;-92
2023/07/10 12:53:59;;;;;;;;;0.00;0.00;;;;;;;;4774126;29;28320;-93
2023/07/10 12:56:30;;;;;;;;;0.33;0.33;;;;;;;;4774381;29;28326;-93
2023/07/10 12:59:12;;;;;;;;;0.00;0.00;;;;;;;;4767216;29;28692;-92
2023/07/10 13:01:46;;;;;;;;;1.67;1.67;;;;;;;;4774452;29;29541;-92
2023/07/10 13:04:21;;;;;;;;;0.33;0.33;;;;;;;;4774221;29;28502;-92
2023/07/10 13:06:57;;;;;;;;;1.00;1.00;;;;;;;;4773172;29;28463;-92
2023/07/10 13:09:40;;;;;;;;;;;;;;;;;;;;;
2023/07/10 13:12:14;;;;;;;;;1.00;1.00;;;;;;;;4773153;29;57224;-92
2023/07/10 13:14:40;;;;;;;;;0.33;0.33;;;;;;;;4772938;29;29089;-93
2023/07/10 13:17:09;;;;;;;;;0.00;0.00;;;;;;;;4774021;29;28338;-93
2023/07/10 13:22:20;;;;;;;;;0.67;0.67;;;;;;;;4767109;29;28401;-92
2023/07/10 13:24:51;;;;;;;;;0.33;0.33;;;;;;;;4772235;29;28503;-93
2023/07/10 13:27:21;;;;;;;;;0.00;0.00;;;;;;;;4772631;29;28505;-92
2023/07/10 13:29:51;;;;;;;;;0.00;0.00;;;;;;;;4774223;29;28417;-93
2023/07/10 13:32:19;;;;;;;;;0.00;0.00;;;;;;;;4762434;29;28455;-92
2023/07/10 13:34:45;;;;;;;;;1.00;1.00;;;;;;;;4773708;29;28579;-92
2023/07/10 13:37:30;;;;;;;;;0.00;0.00;;;;;;;;4772574;29;28373;-92
2023/07/10 13:40:30;;;;;;;;;1.00;1.00;;;;;;;;4773436;29;28308;-92
2023/07/10 13:42:55;;;;;;;;;1.00;1.00;;;;;;;;4772982;29;28310;-92
2023/07/10 13:45:30;;;;;;;;;0.00;0.00;;;;;;;;4772345;29;29085;-92
2023/07/10 13:47:56;;;;;;;;;0.33;0.33;;;;;;;;4772254;29;28386;-92
2023/07/10 13:50:41;;;;;;;;;1.00;1.00;;;;;;;;4793470;29;28459;-93
2023/07/10 13:53:18;;;;;;;;;1.00;1.00;;;;;;;;4809628;29;29253;-92
2023/07/10 13:55:44;;;;;;;;;1.00;1.00;;;;;;;;4809426;29;28391;-92
2023/07/10 13:58:24;;;;;;;;;1.00;1.00;;;;;;;;4809526;29;28353;-93
2023/07/10 14:03:38;;;;;;;;;1.00;1.00;;;;;;;;4796386;29;28421;-92
2023/07/10 14:09:18;;;;;;;;;0.00;0.00;;;;;;;;4808274;29;28429;-92
2023/07/10 14:12:07;;;;;;;;;0.33;0.33;;;;;;;;4793130;29;28544;-93
2023/07/10 14:14:35;;;;;;;;;1.00;1.00;;;;;;;;4782137;29;30372;-92
2023/07/10 14:17:26;;;;;;;;;;;;;;;;;;;;;
2023/07/10 14:19:52;;;;;;;;;0.00;0.00;;;;;;;;4808434;29;54297;-92
2023/07/10 14:22:24;;;;;;;;;1.67;1.67;;;;;;;;4809363;29;28238;-92
2023/07/10 14:24:50;;;;;;;;;1.00;1.00;;;;;;;;4808798;29;29525;-92
2023/07/10 14:27:19;;;;;;;;;1.33;1.33;;;;;;;;4809204;29;28450;-93
2023/07/10 14:29:44;;;;;;;;;1.00;1.00;;;;;;;;4809298;29;28498;-91
2023/07/10 14:32:16;;;;;;;;;1.00;1.00;;;;;;;;4792823;29;28634;-92
2023/07/10 14:34:44;;;;;;;;;0.00;0.00;;;;;;;;4792616;29;28467;-92
2023/07/10 14:37:46;;;;;;;;;0.33;0.33;;;;;;;;4792634;29;28814;-92
2023/07/10 14:40:13;;;;;;;;;1.00;1.00;;;;;;;;4794197;29;28396;-92
2023/07/10 14:42:38;;;;;;;;;1.67;1.67;;;;;;;;4804020;29;28656;-93
2023/07/10 14:45:04;;;;;;;;;1.00;1.00;;;;;;;;4793091;29;29785;-92
2023/07/10 14:47:34;;;;;;;;;1.00;1.00;;;;;;;;4809026;29;28292;-92
2023/07/10 14:50:14;;;;;;;;;;;;;;;;;;;;;
2023/07/10 14:52:41;;;;;;;;;0.67;0.67;;;;;;;;4808054;29;52036;-93
2023/07/10 14:55:12;;;;;;;;;1.00;1.00;;;;;;;;4808454;29;28427;-92
2023/07/10 14:57:37;;;;;;;;;1.00;1.00;;;;;;;;4792267;29;28466;-92
2023/07/10 15:00:07;;;;;;;;;0.00;0.00;;;;;;;;4808940;29;28316;-92
2023/07/10 15:02:33;;;;;;;;;1.00;1.00;;;;;;;;4777774;29;28374;-92